Skabenga — ZDKA3 — position and weather

sailwx.info

Track history (hours):
 
Tides and Currents Weather Stations Pressure Air Temp Water Temp Dewpoint Dewpoint Depression Visibility Wind Speed Wind Dir Waves Ship Positions

Skabenga

Last reported at 2018-Feb-11 14:46 UTC. Time now 2018-Apr-20 11:02 UTC.
Position N 09°13' W 079°55'.
Warning: this ship's position is months out of date.

Length 14 m.

Type: Sailing vessel. MMSI: 236111679.

Date/timePositionNaut miles runAvg speedWind from/ knotsBaromVisibWave heightAir tempDewpointWater temp
2018-Feb-11 14:46N 09°13' W 079°55'3 6.2
2018-Feb-11 14:15N 09°16' W 079°55'0 0.8
2018-Feb-11 13:42N 09°16' W 079°55'0 0.5
2018-Feb-11 13:29N 09°17' W 079°55'0 0.3
2018-Feb-11 12:38N 09°17' W 079°55'0 0.9
2018-Feb-11 12:27N 09°17' W 079°55'1 1.3
2018-Feb-11 11:59N 09°18' W 079°55'2 4.8
2018-Feb-11 11:29N 09°20' W 079°55'1 1.8
2018-Feb-11 11:00N 09°21' W 079°55'0 0.0
2018-Feb-11 10:30N 09°21' W 079°55'0 0.0
2018-Feb-11 00:45N 09°21' W 079°55'0 0.0
2018-Feb-11 00:24N 09°21' W 079°55'0 0.0
2018-Feb-11 00:00N 09°21' W 079°55'0 0.8
2018-Feb-10 23:31N 09°21' W 079°55'2 3.3
2018-Feb-10 22:50N 09°22' W 079°57'0 0.0
2018-Feb-10 22:26N 09°22' W 079°57'0 0.0
2018-Feb-10 21:56N 09°22' W 079°57'0 0.0
2018-Feb-10 21:29N 09°22' W 079°57'0 0.0
2018-Feb-10 20:59N 09°22' W 079°57'0 0.0
2018-Feb-10 20:29N 09°22' W 079°57'0 0.0
2018-Feb-10 19:59N 09°22' W 079°57'0 0.0
2018-Feb-10 19:29N 09°22' W 079°57'0 0.0
2018-Feb-10 18:59N 09°22' W 079°57'0 0.0
2018-Feb-10 18:29N 09°22' W 079°57'  
2018-Feb-05 22:24N 09°22' W 079°57'0 0.4
2018-Feb-05 21:55N 09°22' W 079°57'0 0.0
2018-Feb-05 21:28N 09°22' W 079°57'0 0.1
2018-Feb-05 20:58N 09°22' W 079°57'0 0.0
2018-Feb-05 20:22N 09°22' W 079°57'0 0.0
2018-Feb-05 12:47N 09°22' W 079°57'  
Track history (hours):
 
Tides and Currents Weather Stations Pressure Air Temp Water Temp Dewpoint Dewpoint Depression Visibility Wind Speed Wind Dir Waves Ship Positions

Skabenga

Last reported at 2018-Feb-11 14:46 UTC. Time now 2018-Apr-20 11:02 UTC.
Position N 09°13' W 079°55'.
Warning: this ship's position is months out of date.

Length 14 m.

Type: Sailing vessel. MMSI: 236111679.

Date/timePositionNaut miles runAvg speedWind from/ knotsBaromVisibWave heightAir tempDewpointWater temp
2018-Feb-11 14:46N 09°13' W 079°55'3 6.2
2018-Feb-11 14:15N 09°16' W 079°55'0 0.8
2018-Feb-11 13:42N 09°16' W 079°55'0 0.5
2018-Feb-11 13:29N 09°17' W 079°55'0 0.3
2018-Feb-11 12:38N 09°17' W 079°55'0 0.9
2018-Feb-11 12:27N 09°17' W 079°55'1 1.3
2018-Feb-11 11:59N 09°18' W 079°55'2 4.8
2018-Feb-11 11:29N 09°20' W 079°55'1 1.8
2018-Feb-11 11:00N 09°21' W 079°55'0 0.0
2018-Feb-11 10:30N 09°21' W 079°55'0 0.0
2018-Feb-11 00:45N 09°21' W 079°55'0 0.0
2018-Feb-11 00:24N 09°21' W 079°55'0 0.0
2018-Feb-11 00:00N 09°21' W 079°55'0 0.8
2018-Feb-10 23:31N 09°21' W 079°55'2 3.3
2018-Feb-10 22:50N 09°22' W 079°57'0 0.0
2018-Feb-10 22:26N 09°22' W 079°57'0 0.0
2018-Feb-10 21:56N 09°22' W 079°57'0 0.0
2018-Feb-10 21:29N 09°22' W 079°57'0 0.0
2018-Feb-10 20:59N 09°22' W 079°57'0 0.0
2018-Feb-10 20:29N 09°22' W 079°57'0 0.0
2018-Feb-10 19:59N 09°22' W 079°57'0 0.0
2018-Feb-10 19:29N 09°22' W 079°57'0 0.0
2018-Feb-10 18:59N 09°22' W 079°57'0 0.0
2018-Feb-10 18:29N 09°22' W 079°57'  
2018-Feb-05 22:24N 09°22' W 079°57'0 0.4
2018-Feb-05 21:55N 09°22' W 079°57'0 0.0
2018-Feb-05 21:28N 09°22' W 079°57'0 0.1
2018-Feb-05 20:58N 09°22' W 079°57'0 0.0
2018-Feb-05 20:22N 09°22' W 079°57'0 0.0
2018-Feb-05 12:47N 09°22' W 079°57'  

Dump ship's entire track history